Time;durP1;ratioP1;P1;durP2;ratioP2;P2;SDS_P1;SDS_P2;PMS_P1;PMS_P2;Temp;Humidity;BMP_temperature;BMP_pressure;BME280_temperature;BME280_humidity;BME280_pressure;Samples;Min_cycle;Max_cycle;Signal;HPM_P1;HPM_P2
2021/03/22 00:00:25;;;;;;;4.67;2.77;;;23.10;27.80;;;;;;5072882;28;20562;-57
2021/03/22 00:02:51;;;;;;;4.17;3.00;;;23.10;27.70;;;;;;5073626;28;20252;-56
2021/03/22 00:05:17;;;;;;;3.55;2.70;;;23.10;27.80;;;;;;5074304;28;20250;-55
2021/03/22 00:07:43;;;;;;;4.00;2.65;;;23.10;27.70;;;;;;5071934;28;20278;-58
2021/03/22 00:10:09;;;;;;;3.10;2.65;;;23.10;27.80;;;;;;5073764;28;20197;-58
2021/03/22 00:12:35;;;;;;;3.43;2.73;;;23.10;27.80;;;;;;5072873;28;20668;-56
2021/03/22 00:15:01;;;;;;;3.50;3.17;;;23.10;27.80;;;;;;5073927;28;20201;-55
2021/03/22 00:17:27;;;;;;;3.57;2.60;;;23.10;27.80;;;;;;5070880;28;20762;-57
2021/03/22 00:19:53;;;;;;;3.17;2.53;;;23.10;27.80;;;;;;5073489;28;20196;-58
2021/03/22 00:22:19;;;;;;;4.20;3.00;;;23.10;27.90;;;;;;5071695;28;20201;-56
2021/03/22 00:24:45;;;;;;;3.50;2.40;;;23.10;27.90;;;;;;5072716;28;20232;-52
2021/03/22 00:27:11;;;;;;;3.10;2.63;;;23.10;27.90;;;;;;5069879;28;20224;-55
2021/03/22 00:29:37;;;;;;;3.43;2.70;;;23.10;28.00;;;;;;5072124;28;20530;-58
2021/03/22 00:32:03;;;;;;;3.40;2.47;;;23.10;28.10;;;;;;5072483;28;20200;-58
2021/03/22 00:34:29;;;;;;;4.50;2.70;;;23.10;28.10;;;;;;5065609;28;20208;-57
2021/03/22 00:36:55;;;;;;;3.50;2.60;;;23.10;28.10;;;;;;5072113;28;20228;-53
2021/03/22 00:39:21;;;;;;;3.27;2.53;;;23.10;28.30;;;;;;5069643;28;20633;-56
2021/03/22 00:41:47;;;;;;;4.17;2.77;;;23.10;28.10;;;;;;5070503;28;20203;-57
2021/03/22 00:44:13;;;;;;;3.07;2.70;;;23.10;28.10;;;;;;5072979;28;20553;-56
2021/03/22 00:46:39;;;;;;;3.47;2.53;;;23.10;28.10;;;;;;5071992;28;20223;-57
2021/03/22 00:49:05;;;;;;;3.73;2.80;;;23.10;28.10;;;;;;5064616;28;20556;-57
2021/03/22 00:51:31;;;;;;;2.40;2.20;;;23.10;28.10;;;;;;5071623;28;20204;-56
2021/03/22 00:53:57;;;;;;;3.47;2.60;;;23.10;28.10;;;;;;5070600;28;20544;-59
2021/03/22 00:56:23;;;;;;;3.45;2.38;;;23.10;28.10;;;;;;5071205;28;20243;-57
2021/03/22 00:58:48;;;;;;;3.47;2.67;;;23.10;28.10;;;;;;5057771;28;20204;-59
2021/03/22 01:01:14;;;;;;;3.03;2.20;;;23.10;28.00;;;;;;5057206;28;20208;-55
2021/03/22 01:03:40;;;;;;;2.80;2.50;;;23.10;27.90;;;;;;5071923;28;20232;-55
2021/03/22 01:06:06;;;;;;;3.17;2.50;;;23.10;27.90;;;;;;5072224;28;20225;-55
2021/03/22 01:08:32;;;;;;;4.07;2.70;;;23.10;27.90;;;;;;5070904;28;20212;-59
2021/03/22 01:10:58;;;;;;;2.93;2.63;;;23.10;27.90;;;;;;5070533;28;20218;-57
2021/03/22 01:13:24;;;;;;;4.50;2.40;;;23.10;27.90;;;;;;5069876;28;20220;-58
2021/03/22 01:15:50;;;;;;;2.77;2.40;;;23.10;27.90;;;;;;5070843;28;20691;-56
2021/03/22 01:18:16;;;;;;;2.43;2.23;;;23.10;27.90;;;;;;5070821;28;20216;-53
2021/03/22 01:20:42;;;;;;;3.00;2.50;;;23.10;27.90;;;;;;5072086;28;20213;-59
2021/03/22 01:23:08;;;;;;;2.87;2.50;;;23.10;28.00;;;;;;5071190;28;20280;-55
2021/03/22 01:25:34;;;;;;;3.33;2.33;;;23.10;27.90;;;;;;5071820;28;20224;-55
2021/03/22 01:28:00;;;;;;;3.40;2.60;;;23.10;28.00;;;;;;5070903;28;20205;-56
2021/03/22 01:30:26;;;;;;;3.17;2.47;;;23.10;28.10;;;;;;5071363;28;20204;-58
2021/03/22 01:32:52;;;;;;;7.03;2.30;;;23.10;28.10;;;;;;5071698;28;20204;-55
2021/03/22 01:35:18;;;;;;;4.57;2.87;;;23.10;27.90;;;;;;5072091;28;20221;-56
2021/03/22 01:37:44;;;;;;;3.57;2.30;;;23.10;27.90;;;;;;5070722;28;20208;-57
2021/03/22 01:40:10;;;;;;;4.27;2.47;;;23.00;27.90;;;;;;5071568;28;20576;-57
2021/03/22 01:42:36;;;;;;;2.93;2.53;;;23.00;27.90;;;;;;5069852;28;20238;-55
2021/03/22 01:45:02;;;;;;;3.97;2.57;;;23.00;27.90;;;;;;5071015;28;20251;-58
2021/03/22 01:47:28;;;;;;;3.23;2.40;;;23.00;28.00;;;;;;5071596;28;20217;-57
2021/03/22 01:49:54;;;;;;;2.97;2.50;;;23.00;28.00;;;;;;5070184;28;20242;-58
2021/03/22 01:52:20;;;;;;;2.63;2.37;;;23.10;28.10;;;;;;5071770;28;20200;-56
2021/03/22 01:54:46;;;;;;;2.60;2.40;;;23.10;28.10;;;;;;5068972;28;20213;-58
2021/03/22 01:57:12;;;;;;;3.10;2.50;;;23.10;28.10;;;;;;5070990;28;20773;-59
2021/03/22 01:59:38;;;;;;;4.40;2.50;;;23.10;28.10;;;;;;5070798;28;20205;-60
2021/03/22 02:02:04;;;;;;;2.55;1.95;;;23.10;28.10;;;;;;5071243;28;20676;-53
2021/03/22 02:04:30;;;;;;;3.07;2.57;;;23.10;28.10;;;;;;5070923;28;20233;-57
2021/03/22 02:06:56;;;;;;;2.83;2.20;;;23.10;28.10;;;;;;5070183;28;20691;-59
2021/03/22 02:09:22;;;;;;;3.63;2.60;;;23.10;28.10;;;;;;5063558;28;20202;-59
2021/03/22 02:11:48;;;;;;;3.13;2.40;;;23.10;28.10;;;;;;5062532;28;20201;-55
2021/03/22 02:14:14;;;;;;;3.60;2.33;;;23.10;28.10;;;;;;5065675;28;20220;-58
2021/03/22 02:16:40;;;;;;;2.90;2.60;;;23.10;28.10;;;;;;5070209;28;20225;-57
2021/03/22 02:19:06;;;;;;;3.10;2.67;;;23.10;28.10;;;;;;5069928;28;20234;-54
2021/03/22 02:21:32;;;;;;;6.35;2.63;;;23.10;28.10;;;;;;5069109;28;20197;-56
2021/03/22 02:23:58;;;;;;;5.27;2.70;;;23.10;28.10;;;;;;5071596;28;20229;-55
2021/03/22 02:26:24;;;;;;;2.93;2.20;;;23.10;28.00;;;;;;5069715;28;20221;-55
2021/03/22 02:28:50;;;;;;;2.93;2.20;;;23.10;28.00;;;;;;5071462;28;20661;-56
2021/03/22 02:31:16;;;;;;;3.10;2.10;;;23.10;28.00;;;;;;5070120;28;20209;-57
2021/03/22 02:33:42;;;;;;;3.13;2.27;;;23.10;27.90;;;;;;5070219;28;20250;-56
2021/03/22 02:36:08;;;;;;;3.90;2.78;;;23.10;28.00;;;;;;5070412;28;20217;-56
2021/03/22 02:38:34;;;;;;;4.23;2.60;;;23.00;28.00;;;;;;5070619;28;20534;-54
2021/03/22 02:41:00;;;;;;;3.83;2.47;;;23.00;28.00;;;;;;5070619;28;20204;-55
2021/03/22 02:43:26;;;;;;;3.03;2.17;;;23.00;28.00;;;;;;5070486;28;20278;-57
2021/03/22 02:45:52;;;;;;;4.03;2.43;;;23.00;28.00;;;;;;5070789;28;20220;-57
2021/03/22 02:48:18;;;;;;;2.60;2.13;;;23.10;28.10;;;;;;5066631;28;20209;-54
2021/03/22 02:50:44;;;;;;;2.43;2.10;;;23.10;28.00;;;;;;5065288;28;20207;-57
2021/03/22 02:53:10;;;;;;;3.30;2.20;;;23.00;28.00;;;;;;5068952;28;20209;-53
2021/03/22 02:55:36;;;;;;;3.57;2.63;;;23.10;28.10;;;;;;5071224;28;20595;-57
2021/03/22 02:58:02;;;;;;;2.40;2.05;;;23.10;28.10;;;;;;5068986;28;20201;-56
2021/03/22 03:00:28;;;;;;;2.83;2.17;;;23.00;28.00;;;;;;5070534;28;20208;-55
2021/03/22 03:02:54;;;;;;;2.67;2.00;;;23.00;28.00;;;;;;5069687;28;20208;-56
2021/03/22 03:05:20;;;;;;;3.93;2.80;;;23.00;28.00;;;;;;5070829;28;20269;-53
2021/03/22 03:07:46;;;;;;;2.43;2.23;;;23.00;28.00;;;;;;5069482;28;20201;-58
2021/03/22 03:10:12;;;;;;;2.97;2.30;;;23.00;28.00;;;;;;5071053;28;20208;-57
2021/03/22 03:12:38;;;;;;;2.47;2.10;;;23.00;28.10;;;;;;5064501;28;20553;-55
2021/03/22 03:15:03;;;;;;;3.10;2.50;;;23.00;28.00;;;;;;5060889;28;20229;-55
2021/03/22 03:17:29;;;;;;;3.67;2.40;;;23.00;28.00;;;;;;5065658;28;20196;-56
2021/03/22 03:19:55;;;;;;;2.80;2.20;;;23.00;28.00;;;;;;5070597;28;20208;-55
2021/03/22 03:22:21;;;;;;;2.50;2.00;;;23.00;28.00;;;;;;5067574;28;20197;-56
2021/03/22 03:24:47;;;;;;;2.20;2.00;;;23.00;28.00;;;;;;5070134;28;20225;-56
2021/03/22 03:27:13;;;;;;;2.60;2.20;;;23.00;28.00;;;;;;5068639;28;20205;-58
2021/03/22 03:29:39;;;;;;;2.90;2.10;;;23.00;28.10;;;;;;5070302;28;20650;-57
2021/03/22 03:32:05;;;;;;;3.67;3.00;;;23.10;28.10;;;;;;5070699;28;20196;-59
2021/03/22 03:34:31;;;;;;;2.63;2.13;;;23.10;28.10;;;;;;5071940;28;20234;-55
2021/03/22 03:36:57;;;;;;;2.63;1.80;;;23.10;28.10;;;;;;5071235;28;20209;-57
2021/03/22 03:39:23;;;;;;;3.20;2.30;;;23.00;28.00;;;;;;5073530;28;20211;-58
2021/03/22 03:41:49;;;;;;;3.30;2.20;;;23.10;28.10;;;;;;5072783;28;20205;-56
2021/03/22 03:44:15;;;;;;;2.40;2.10;;;23.10;28.10;;;;;;5074080;28;20228;-57
2021/03/22 03:46:41;;;;;;;2.97;2.10;;;23.00;28.10;;;;;;5072411;28;20641;-59
2021/03/22 03:49:07;;;;;;;3.20;2.40;;;23.00;28.00;;;;;;5072555;28;20212;-55
2021/03/22 03:51:33;;;;;;;2.63;2.07;;;23.10;28.10;;;;;;5072303;28;20548;-57
2021/03/22 03:53:59;;;;;;;3.50;2.13;;;23.00;28.00;;;;;;5070348;28;20194;-52
2021/03/22 03:56:26;;;;;;;2.43;2.20;;;23.00;28.00;;;;;;5065247;28;20277;-53
2021/03/22 03:58:52;;;;;;;2.93;2.40;;;23.00;28.00;;;;;;5072693;28;20207;-55
2021/03/22 04:01:18;;;;;;;4.60;2.03;;;23.00;28.00;;;;;;5062085;28;20209;-53
2021/03/22 04:03:44;;;;;;;3.33;2.30;;;23.00;28.00;;;;;;5071749;28;20220;-54
2021/03/22 04:06:10;;;;;;;3.10;2.27;;;23.00;28.00;;;;;;5074199;28;20221;-58
2021/03/22 04:08:37;;;;;;;3.07;2.33;;;23.00;28.00;;;;;;5072769;28;20269;-57
2021/03/22 04:11:03;;;;;;;3.70;2.50;;;23.00;28.00;;;;;;5073420;28;20281;-56
2021/03/22 04:13:29;;;;;;;4.07;2.60;;;23.00;28.10;;;;;;5072690;28;20270;-56
2021/03/22 04:15:55;;;;;;;2.30;2.10;;;23.00;28.10;;;;;;5073160;28;20711;-56
2021/03/22 04:18:21;;;;;;;4.27;2.20;;;23.00;28.00;;;;;;5071315;28;20204;-56
2021/03/22 04:20:47;;;;;;;2.30;2.10;;;23.00;28.10;;;;;;5071628;28;20644;-57
2021/03/22 04:23:13;;;;;;;2.20;2.00;;;23.00;28.00;;;;;;5070721;28;20204;-55
2021/03/22 04:25:39;;;;;;;2.67;2.00;;;23.00;28.00;;;;;;5072742;28;20231;-52
2021/03/22 04:28:05;;;;;;;2.67;2.17;;;23.00;28.00;;;;;;5073002;28;20199;-56
2021/03/22 04:30:31;;;;;;;2.90;2.17;;;23.00;28.00;;;;;;5070870;28;20204;-56
2021/03/22 04:32:57;;;;;;;2.83;2.00;;;23.00;28.00;;;;;;5072230;28;20241;-57
2021/03/22 04:35:23;;;;;;;2.70;2.07;;;23.00;28.10;;;;;;5068779;28;20229;-55
2021/03/22 04:37:49;;;;;;;2.23;2.00;;;23.00;28.00;;;;;;5072419;28;20265;-55
2021/03/22 04:40:15;;;;;;;3.13;2.27;;;23.00;28.00;;;;;;5069941;28;20201;-51
2021/03/22 04:42:41;;;;;;;4.10;2.40;;;23.00;28.00;;;;;;5068427;28;20201;-54
2021/03/22 04:45:07;;;;;;;1.97;1.77;;;23.00;28.00;;;;;;5070177;28;20239;-57
2021/03/22 04:47:33;;;;;;;2.97;2.10;;;23.00;28.00;;;;;;5067622;28;20196;-55
2021/03/22 04:49:59;;;;;;;2.70;2.00;;;23.00;28.00;;;;;;5072327;28;20200;-56
2021/03/22 04:52:25;;;;;;;2.67;2.03;;;23.00;28.10;;;;;;5072798;28;20618;-56
2021/03/22 04:54:51;;;;;;;1.90;1.70;;;23.00;28.00;;;;;;5071688;28;20240;-55
2021/03/22 04:57:17;;;;;;;2.63;2.00;;;23.00;28.10;;;;;;5072105;28;20705;-54
2021/03/22 04:59:43;;;;;;;3.83;2.20;;;23.00;28.00;;;;;;5068596;28;20202;-56
2021/03/22 05:02:09;;;;;;;2.37;2.07;;;23.00;28.10;;;;;;5071331;28;20613;-56
2021/03/22 05:04:35;;;;;;;2.23;2.03;;;23.00;28.00;;;;;;5072004;28;20247;-55
2021/03/22 05:07:01;;;;;;;2.53;2.30;;;23.00;28.00;;;;;;5072043;28;20204;-54
2021/03/22 05:09:26;;;;;;;2.03;1.70;;;23.00;28.00;;;;;;5071235;28;20201;-54
2021/03/22 05:11:52;;;;;;;3.27;2.10;;;23.00;28.00;;;;;;5072714;28;20246;-54
2021/03/22 05:14:18;;;;;;;2.27;2.00;;;23.00;28.00;;;;;;5071862;28;20220;-57
2021/03/22 05:16:44;;;;;;;3.60;2.20;;;23.00;28.00;;;;;;5071744;28;20204;-59
2021/03/22 05:19:10;;;;;;;3.70;2.00;;;23.00;28.00;;;;;;5071562;28;20215;-55
2021/03/22 05:21:36;;;;;;;2.37;1.80;;;23.00;28.00;;;;;;5071568;28;20207;-54
2021/03/22 05:24:02;;;;;;;2.53;1.90;;;23.00;28.10;;;;;;5070705;28;20586;-58
2021/03/22 05:26:28;;;;;;;2.80;2.03;;;23.00;28.00;;;;;;5069979;28;20204;-53
2021/03/22 05:28:54;;;;;;;1.90;1.80;;;23.00;28.10;;;;;;5055810;28;20598;-56
2021/03/22 05:31:20;;;;;;;2.23;2.00;;;23.00;28.00;;;;;;5071054;28;20200;-58
2021/03/22 05:33:46;;;;;;;2.57;2.10;;;23.00;28.10;;;;;;5069058;28;20723;-58
2021/03/22 05:36:12;;;;;;;2.07;1.87;;;23.00;28.00;;;;;;5068412;28;20224;-51
2021/03/22 05:38:38;;;;;;;2.30;2.10;;;23.00;28.00;;;;;;5070601;28;20200;-54
2021/03/22 05:41:04;;;;;;;2.83;2.00;;;23.00;28.00;;;;;;5071159;28;20251;-55
2021/03/22 05:43:30;;;;;;;2.87;1.90;;;23.00;28.10;;;;;;5069520;28;20235;-58
2021/03/22 05:45:56;;;;;;;3.63;2.30;;;23.00;28.10;;;;;;5069396;28;20695;-55
2021/03/22 05:48:23;;;;;;;2.67;2.40;;;23.00;28.00;;;;;;5069743;28;20197;-58
2021/03/22 05:50:49;;;;;;;1.90;1.60;;;23.00;28.10;;;;;;5071251;28;20211;-57
2021/03/22 05:53:15;;;;;;;2.77;1.77;;;23.00;28.00;;;;;;5071192;28;20208;-56
2021/03/22 05:55:41;;;;;;;3.50;2.28;;;23.00;28.10;;;;;;5071374;22;20630;-52
2021/03/22 05:58:07;;;;;;;2.80;2.03;;;23.00;28.00;;;;;;5049763;28;20206;-53
2021/03/22 06:00:33;;;;;;;2.70;2.17;;;23.00;28.00;;;;;;5051492;28;20197;-56
2021/03/22 06:02:59;;;;;;;2.57;2.37;;;23.00;28.00;;;;;;5038798;28;20254;-54
2021/03/22 06:05:25;;;;;;;3.27;2.23;;;23.00;28.00;;;;;;5050682;28;20237;-47
2021/03/22 06:07:50;;;;;;;2.93;1.90;;;23.00;28.10;;;;;;5049740;28;20561;-43
2021/03/22 06:10:16;;;;;;;2.60;2.40;;;23.00;28.00;;;;;;5051653;28;20203;-50
2021/03/22 06:12:42;;;;;;;3.90;2.27;;;23.00;28.00;;;;;;5050127;28;20204;-47
2021/03/22 06:15:08;;;;;;;3.47;2.23;;;23.00;28.00;;;;;;5051066;28;20224;-43
2021/03/22 06:17:34;;;;;;;3.30;1.90;;;23.00;28.00;;;;;;5050095;28;20216;-43
2021/03/22 06:20:00;;;;;;;2.60;2.03;;;23.00;28.00;;;;;;5050854;28;20209;-48
2021/03/22 06:22:28;;;;;;;2.40;2.10;;;23.00;28.00;;;;;;5050635;28;20482;-56
2021/03/22 06:24:54;;;;;;;2.50;2.00;;;23.00;28.10;;;;;;5050607;28;20336;-43
2021/03/22 06:27:20;;;;;;;2.83;1.97;;;23.00;28.10;;;;;;5048393;28;20672;-45
2021/03/22 06:29:47;;;;;;;4.13;1.93;;;23.00;28.00;;;;;;5050513;28;20201;-44
2021/03/22 06:32:13;;;;;;;3.50;2.00;;;23.00;28.10;;;;;;5049629;28;20657;-58
2021/03/22 06:34:39;;;;;;;2.63;2.00;;;23.00;28.00;;;;;;5050501;28;20225;-46
2021/03/22 06:37:05;;;;;;;3.13;2.27;;;23.00;28.00;;;;;;5045230;28;20224;-51
2021/03/22 06:39:31;;;;;;;2.20;2.00;;;23.00;28.10;;;;;;5051180;28;20207;-54
2021/03/22 06:41:57;;;;;;;1.80;1.70;;;23.00;28.00;;;;;;5049150;28;20209;-47
2021/03/22 06:44:23;;;;;;;3.93;2.30;;;23.00;28.10;;;;;;5047151;28;20233;-49
2021/03/22 06:46:49;;;;;;;4.17;2.03;;;22.90;28.40;;;;;;5045828;28;20657;-46
2021/03/22 06:49:14;;;;;;;2.13;1.93;;;23.00;28.10;;;;;;5048246;28;20201;-54
2021/03/22 06:51:40;;;;;;;4.50;1.90;;;23.00;28.10;;;;;;5050390;28;20564;-50
2021/03/22 06:54:06;;;;;;;3.60;2.17;;;23.00;28.00;;;;;;5048219;28;20233;-48
2021/03/22 06:56:33;;;;;;;3.60;2.13;;;23.00;28.00;;;;;;5050235;28;20214;-49
2021/03/22 06:58:59;;;;;;;2.77;1.90;;;23.00;28.00;;;;;;5040379;28;20193;-53
2021/03/22 07:01:25;;;;;;;3.80;2.93;;;23.10;28.10;;;;;;5043153;28;20538;-51
2021/03/22 07:03:51;;;;;;;3.30;1.80;;;23.00;28.00;;;;;;5048902;28;20289;-51
2021/03/22 07:06:17;;;;;;;2.63;2.00;;;23.00;28.10;;;;;;5050146;28;20665;-50
2021/03/22 07:08:43;;;;;;;3.57;2.17;;;23.00;28.00;;;;;;5054293;28;20204;-46
2021/03/22 07:11:09;;;;;;;3.07;1.73;;;23.00;28.10;;;;;;5054639;28;20679;-49
2021/03/22 07:13:35;;;;;;;3.63;2.10;;;23.00;28.00;;;;;;5054158;28;20210;-47
2021/03/22 07:16:01;;;;;;;3.75;2.22;;;23.00;28.00;;;;;;5054239;28;20208;-46
2021/03/22 07:18:28;;;;;;;4.40;1.90;;;23.00;28.10;;;;;;5052635;28;20569;-48
2021/03/22 07:20:54;;;;;;;2.57;2.00;;;23.00;28.00;;;;;;5054743;28;20617;-55
2021/03/22 07:23:20;;;;;;;3.47;2.30;;;23.00;28.00;;;;;;5053434;28;20202;-50
2021/03/22 07:25:46;;;;;;;2.80;1.80;;;23.00;28.00;;;;;;5054386;28;20202;-52
2021/03/22 07:28:12;;;;;;;2.43;2.00;;;23.00;28.10;;;;;;5052652;28;20676;-51
2021/03/22 07:30:38;;;;;;;2.83;1.93;;;23.00;28.00;;;;;;5050898;28;20202;-47
2021/03/22 07:33:04;;;;;;;3.30;2.13;;;23.00;28.10;;;;;;5050445;28;20574;-50
2021/03/22 07:35:31;;;;;;;3.80;2.03;;;23.00;28.00;;;;;;5052798;28;20275;-48
2021/03/22 07:37:56;;;;;;;3.10;1.97;;;23.00;28.00;;;;;;5052456;28;20213;-49
2021/03/22 07:40:23;;;;;;;5.83;2.10;;;23.00;28.00;;;;;;5053335;28;20205;-48
2021/03/22 07:42:48;;;;;;;2.63;1.90;;;23.00;28.00;;;;;;5051192;28;20568;-52
2021/03/22 07:45:14;;;;;;;2.03;1.83;;;23.00;28.00;;;;;;5044375;28;20242;-45
2021/03/22 07:47:40;;;;;;;3.27;1.77;;;23.00;28.00;;;;;;5052020;28;20232;-52
2021/03/22 07:50:06;;;;;;;2.30;1.70;;;23.00;28.00;;;;;;5053690;28;20677;-51
2021/03/22 07:52:32;;;;;;;3.60;2.03;;;23.00;28.00;;;;;;5054050;28;20255;-46
2021/03/22 07:54:58;;;;;;;2.30;2.00;;;23.00;28.00;;;;;;5052690;28;20234;-53
2021/03/22 07:57:26;;;;;;;2.43;1.90;;;23.00;28.10;;;;;;5053005;28;20537;-50
2021/03/22 07:59:52;;;;;;;6.03;2.80;;;23.00;28.00;;;;;;5049728;28;20228;-44
2021/03/22 08:02:18;;;;;;;7.40;2.77;;;23.00;28.70;;;;;;5049433;28;20208;-43
2021/03/22 08:04:44;;;;;;;5.07;2.50;;;23.10;29.00;;;;;;5048686;28;20332;-47
2021/03/22 08:07:10;;;;;;;5.83;2.20;;;23.00;29.00;;;;;;5053522;28;20350;-43
2021/03/22 08:09:36;;;;;;;5.55;2.72;;;23.00;29.00;;;;;;5051947;28;20267;-43
2021/03/22 08:12:02;;;;;;;9.13;3.70;;;23.00;28.90;;;;;;5053371;28;20213;-43
2021/03/22 08:14:28;;;;;;;11.83;4.77;;;22.00;21.70;;;;;;5044284;28;20243;-44
2021/03/22 08:16:54;;;;;;;11.67;4.30;;;16.10;22.20;;;;;;5046634;28;20196;-44
2021/03/22 08:19:20;;;;;;;13.30;4.20;;;14.20;23.70;;;;;;5044239;28;20235;-49
2021/03/22 08:21:46;;;;;;;10.77;4.13;;;13.80;26.10;;;;;;5037145;28;20332;-43
2021/03/22 08:24:12;;;;;;;8.83;3.30;;;17.00;25.20;;;;;;5033799;28;20223;-47
2021/03/22 08:26:38;;;;;;;7.13;3.27;;;18.90;24.40;;;;;;5043613;28;20214;-46
2021/03/22 08:29:04;;;;;;;8.43;3.60;;;19.80;23.50;;;;;;5041680;28;20228;-43
2021/03/22 08:31:30;;;;;;;8.73;3.27;;;20.50;24.10;;;;;;5047090;28;20196;-59
2021/03/22 08:33:56;;;;;;;18.17;3.27;;;20.90;23.70;;;;;;5045957;28;20232;-43
2021/03/22 08:36:22;;;;;;;7.57;2.87;;;21.20;23.80;;;;;;5047349;28;20218;-44
2021/03/22 08:38:48;;;;;;;6.33;3.67;;;21.40;24.50;;;;;;5048687;28;21118;-47
2021/03/22 08:41:14;;;;;;;6.37;2.90;;;21.60;24.90;;;;;;5047479;28;20228;-58
2021/03/22 08:43:40;;;;;;;8.20;3.70;;;21.70;24.30;;;;;;5050769;28;20223;-46
2021/03/22 08:46:06;;;;;;;6.97;3.43;;;21.80;24.60;;;;;;5042577;28;20202;-51
2021/03/22 08:48:32;;;;;;;7.13;3.77;;;21.90;24.70;;;;;;5040644;28;20205;-44
2021/03/22 08:50:58;;;;;;;6.57;3.23;;;22.00;25.10;;;;;;5038357;28;20206;-54
2021/03/22 08:53:24;;;;;;;6.83;2.87;;;22.10;25.10;;;;;;5042092;28;20269;-43
2021/03/22 08:55:51;;;;;;;5.27;2.83;;;22.20;25.50;;;;;;5038870;28;20742;-43
2021/03/22 08:58:17;;;;;;;8.30;3.13;;;22.20;25.40;;;;;;5047391;28;20212;-44
2021/03/22 09:00:43;;;;;;;7.33;2.80;;;22.20;25.40;;;;;;5047891;28;20661;-48
2021/03/22 09:03:09;;;;;;;6.87;2.73;;;22.30;25.60;;;;;;5051560;28;20227;-44
2021/03/22 09:05:35;;;;;;;6.37;2.77;;;22.30;25.60;;;;;;5051303;28;20233;-47
2021/03/22 09:08:01;;;;;;;7.67;2.40;;;22.30;25.80;;;;;;5049769;28;20587;-47
2021/03/22 09:10:27;;;;;;;6.67;2.73;;;22.30;25.80;;;;;;5045285;28;20557;-44
2021/03/22 09:12:53;;;;;;;4.93;2.67;;;22.30;25.90;;;;;;5041182;28;20234;-42
2021/03/22 09:15:19;;;;;;;6.20;2.70;;;22.40;26.00;;;;;;5045339;28;20215;-43
2021/03/22 09:17:45;;;;;;;6.13;2.70;;;22.50;26.20;;;;;;5047895;28;20684;-46
2021/03/22 09:20:11;;;;;;;6.53;2.87;;;22.50;26.10;;;;;;5045374;28;20203;-49
2021/03/22 09:22:37;;;;;;;6.47;3.00;;;22.50;26.20;;;;;;5042984;28;20205;-48
2021/03/22 09:25:03;;;;;;;8.23;2.67;;;22.40;26.20;;;;;;5042962;28;20229;-43
2021/03/22 09:27:29;;;;;;;4.67;2.70;;;22.40;26.40;;;;;;5048669;28;20280;-47
2021/03/22 09:29:55;;;;;;;5.80;2.67;;;22.40;26.40;;;;;;5050024;28;20791;-42
2021/03/22 09:32:21;;;;;;;4.20;2.80;;;22.40;26.60;;;;;;5038399;28;20200;-41
2021/03/22 09:34:47;;;;;;;5.27;2.50;;;22.40;26.60;;;;;;5042460;28;20256;-48
2021/03/22 09:37:13;;;;;;;5.10;2.47;;;22.40;26.60;;;;;;5050463;28;20659;-50
2021/03/22 09:39:39;;;;;;;6.97;2.50;;;22.50;26.60;;;;;;5050850;28;20206;-40
2021/03/22 09:42:05;;;;;;;4.60;2.27;;;22.40;26.50;;;;;;5049337;28;20212;-45
2021/03/22 09:44:31;;;;;;;3.47;2.30;;;22.50;26.60;;;;;;5047844;28;20225;-42
2021/03/22 09:46:57;;;;;;;5.83;2.87;;;22.50;26.60;;;;;;5047452;28;20266;-42
2021/03/22 09:49:23;;;;;;;6.87;2.83;;;22.50;26.50;;;;;;5043855;28;20669;-44
2021/03/22 09:51:49;;;;;;;4.40;2.60;;;22.60;26.60;;;;;;5036843;28;20230;-43
2021/03/22 09:54:15;;;;;;;7.20;2.57;;;22.60;26.60;;;;;;5047356;28;20315;-43
2021/03/22 09:56:41;;;;;;;4.10;2.37;;;22.60;26.70;;;;;;5050456;28;20543;-47
2021/03/22 09:59:07;;;;;;;4.73;2.33;;;22.60;27.60;;;;;;5035980;28;20202;-43
2021/03/22 10:01:35;;;;;;;4.40;2.37;;;22.60;26.80;;;;;;5043322;28;20212;-46
2021/03/22 10:04:01;;;;;;;3.50;2.20;;;22.50;26.80;;;;;;5043777;28;20757;-45
2021/03/22 10:06:27;;;;;;;5.13;2.50;;;22.50;26.80;;;;;;5050989;28;20216;-45
2021/03/22 10:08:53;;;;;;;4.77;2.43;;;22.60;27.00;;;;;;5041839;28;20262;-49
2021/03/22 10:11:19;;;;;;;4.47;2.30;;;22.50;26.90;;;;;;5046281;28;20275;-46
2021/03/22 10:13:46;;;;;;;6.23;2.40;;;22.50;27.00;;;;;;5032956;28;20244;-46
2021/03/22 10:16:12;;;;;;;4.13;2.50;;;22.50;26.90;;;;;;5049117;28;20199;-49
2021/03/22 10:18:38;;;;;;;6.07;2.50;;;22.40;26.20;;;;;;5047545;28;20208;-49
2021/03/22 10:21:04;;;;;;;4.97;2.67;;;22.50;26.30;;;;;;5044696;28;20216;-43
2021/03/22 10:23:29;;;;;;;5.97;2.73;;;22.50;26.60;;;;;;5051411;28;20279;-53
2021/03/22 10:25:55;;;;;;;2.57;2.00;;;22.50;26.80;;;;;;5051513;28;20207;-49
2021/03/22 10:28:21;;;;;;;4.83;2.23;;;22.50;27.00;;;;;;5049963;28;20691;-50
2021/03/22 10:30:47;;;;;;;4.67;2.20;;;22.50;27.00;;;;;;5051857;28;20212;-49
2021/03/22 10:33:13;;;;;;;4.27;2.17;;;22.50;27.10;;;;;;5051620;28;20627;-50
2021/03/22 10:35:39;;;;;;;4.53;2.43;;;22.50;27.00;;;;;;5051768;28;20216;-51
2021/03/22 10:38:05;;;;;;;6.30;2.57;;;22.60;27.00;;;;;;5051060;28;20209;-55
2021/03/22 10:40:31;;;;;;;8.73;2.33;;;22.50;27.00;;;;;;5051522;28;20212;-47
2021/03/22 10:42:57;;;;;;;5.10;2.27;;;22.60;27.00;;;;;;5057095;28;20227;-50
2021/03/22 10:45:23;;;;;;;3.30;2.43;;;22.60;27.10;;;;;;5057824;28;20774;-48
2021/03/22 10:47:49;;;;;;;3.97;2.43;;;22.60;27.10;;;;;;5054410;28;20197;-52
2021/03/22 10:50:15;;;;;;;5.40;2.20;;;22.60;27.10;;;;;;5038194;28;20198;-44
2021/03/22 10:52:41;;;;;;;3.93;2.57;;;22.60;27.10;;;;;;5038364;28;20232;-46
2021/03/22 10:55:07;;;;;;;3.90;2.40;;;22.60;27.10;;;;;;5038364;28;20275;-48
2021/03/22 10:57:33;;;;;;;4.73;2.10;;;22.60;27.20;;;;;;5037497;28;20209;-46
2021/03/22 10:59:59;;;;;;;7.03;2.53;;;22.60;27.20;;;;;;5043379;28;20203;-42
2021/03/22 11:02:25;;;;;;;5.43;2.50;;;22.50;27.20;;;;;;5047890;28;20224;-44
2021/03/22 11:04:51;;;;;;;4.47;2.07;;;22.60;27.20;;;;;;5038524;28;20232;-51
2021/03/22 11:07:17;;;;;;;3.73;2.00;;;22.60;27.10;;;;;;4988634;28;20256;-47
2021/03/22 11:09:43;;;;;;;4.27;2.10;;;22.60;27.20;;;;;;5036094;28;20205;-47
2021/03/22 11:12:09;;;;;;;3.30;2.00;;;22.60;27.20;;;;;;5031653;28;20200;-49
2021/03/22 11:14:35;;;;;;;3.07;2.57;;;22.60;27.30;;;;;;5033453;28;20212;-49
2021/03/22 11:17:01;;;;;;;5.30;2.13;;;22.60;27.40;;;;;;5034673;28;20209;-51
2021/03/22 11:19:27;;;;;;;7.40;2.30;;;22.60;27.50;;;;;;5024247;28;20258;-51
2021/03/22 11:21:53;;;;;;;4.23;2.10;;;22.60;27.40;;;;;;5030416;28;20255;-52
2021/03/22 11:24:19;;;;;;;3.70;2.20;;;22.60;27.40;;;;;;5026904;28;20253;-47
2021/03/22 11:26:45;;;;;;;5.40;2.27;;;22.70;27.40;;;;;;5028136;28;20209;-47
2021/03/22 11:29:11;;;;;;;3.90;2.20;;;22.70;27.30;;;;;;5031031;28;20236;-51
2021/03/22 11:31:37;;;;;;;4.40;2.40;;;22.70;27.40;;;;;;5026925;28;20571;-45
2021/03/22 11:34:03;;;;;;;3.03;1.80;;;22.70;27.30;;;;;;5026960;28;20228;-46
2021/03/22 11:36:29;;;;;;;5.37;2.30;;;22.70;27.40;;;;;;5024889;28;20204;-56
2021/03/22 11:38:55;;;;;;;4.77;2.40;;;22.70;27.40;;;;;;5026527;28;20263;-45
2021/03/22 11:41:21;;;;;;;4.30;2.20;;;22.70;27.40;;;;;;5029774;28;20201;-47
2021/03/22 11:43:47;;;;;;;5.47;2.67;;;22.70;27.40;;;;;;5028450;28;20338;-45
2021/03/22 11:46:13;;;;;;;6.80;2.10;;;22.70;27.50;;;;;;5022941;28;20229;-46
2021/03/22 11:48:39;;;;;;;4.53;2.77;;;22.70;27.80;;;;;;5025547;28;20209;-56
2021/03/22 11:51:08;;;;;;;4.13;2.23;;;22.70;27.90;;;;;;5027297;28;20210;-46
2021/03/22 11:53:34;;;;;;;3.23;2.03;;;22.70;27.90;;;;;;5023642;28;20226;-56
2021/03/22 11:56:00;;;;;;;4.80;2.27;;;22.60;27.70;;;;;;5022336;28;20276;-49
2021/03/22 11:58:26;;;;;;;4.67;2.10;;;22.60;27.70;;;;;;5022092;28;20940;-46
2021/03/22 12:00:52;;;;;;;2.83;1.77;;;22.60;27.70;;;;;;5024147;28;20201;-42
2021/03/22 12:03:18;;;;;;;4.23;2.37;;;22.60;27.70;;;;;;5023985;28;20237;-52
2021/03/22 12:05:44;;;;;;;3.67;1.90;;;22.60;27.70;;;;;;5024003;28;20222;-45
2021/03/22 12:08:09;;;;;;;3.17;1.93;;;22.60;27.70;;;;;;5022695;28;20283;-53
2021/03/22 12:10:35;;;;;;;3.43;2.03;;;22.60;27.80;;;;;;5023126;28;20622;-54
2021/03/22 12:13:01;;;;;;;2.67;1.70;;;22.70;27.80;;;;;;5022479;28;20224;-50
2021/03/22 12:15:27;;;;;;;3.23;1.80;;;22.70;27.80;;;;;;5022498;28;20208;-49
2021/03/22 12:17:54;;;;;;;2.30;2.10;;;22.70;27.80;;;;;;5023201;28;20212;-45
2021/03/22 12:20:20;;;;;;;4.73;1.80;;;22.70;27.80;;;;;;5018137;28;20206;-50
2021/03/22 12:22:45;;;;;;;3.67;1.93;;;22.70;27.90;;;;;;5021317;28;20591;-48
2021/03/22 12:25:11;;;;;;;2.87;1.83;;;22.70;27.80;;;;;;5021308;28;20233;-45
2021/03/22 12:27:37;;;;;;;4.57;2.30;;;22.70;27.80;;;;;;5020101;28;20256;-43
2021/03/22 12:30:03;;;;;;;3.23;1.87;;;22.80;27.70;;;;;;5023430;28;20578;-44
2021/03/22 12:32:29;;;;;;;4.67;2.10;;;22.90;27.60;;;;;;5021922;28;20222;-47
2021/03/22 12:34:55;;;;;;;2.53;2.00;;;23.00;27.60;;;;;;5020536;28;20286;-48
2021/03/22 12:37:21;;;;;;;4.80;2.10;;;23.00;27.70;;;;;;5019919;28;20233;-47